createdAt,value
2017-11-29T00:02:14.897Z,13.17
2017-11-29T00:04:42.444Z,14.43
2017-11-29T00:07:10.012Z,12.10
2017-11-29T00:09:37.553Z,12.47
2017-11-29T00:12:05.884Z,11.43
2017-11-29T00:14:33.420Z,10.40
2017-11-29T00:17:01.672Z,11.03
2017-11-29T00:19:29.973Z,9.33
2017-11-29T00:21:57.531Z,9.33
2017-11-29T00:24:25.075Z,10.20
2017-11-29T00:26:53.418Z,9.57
2017-11-29T00:29:20.963Z,10.70
2017-11-29T00:31:48.520Z,9.90
2017-11-29T00:34:16.056Z,9.40
2017-11-29T00:36:43.619Z,9.23
2017-11-29T00:39:11.158Z,8.83
2017-11-29T00:41:38.788Z,8.43
2017-11-29T00:44:07.092Z,9.00
2017-11-29T00:46:34.644Z,9.20
2017-11-29T00:49:02.947Z,9.50
2017-11-29T00:51:30.509Z,9.60
2017-11-29T00:53:58.037Z,9.20
2017-11-29T00:56:26.359Z,10.50
2017-11-29T00:58:53.890Z,9.70
2017-11-29T01:01:43.400Z,10.60
2017-11-29T01:04:10.937Z,11.93
2017-11-29T01:06:38.501Z,12.67
2017-11-29T01:09:06.044Z,14.10
2017-11-29T01:11:33.607Z,15.40
2017-11-29T01:14:01.141Z,13.90
2017-11-29T01:16:29.480Z,14.80
2017-11-29T01:18:57.008Z,14.60
2017-11-29T01:21:24.564Z,13.20
2017-11-29T01:23:52.112Z,11.70
2017-11-29T01:26:19.681Z,10.50
2017-11-29T01:28:47.215Z,13.00
2017-11-29T01:31:15.544Z,15.53
2017-11-29T01:33:43.088Z,16.07
2017-11-29T01:36:10.649Z,13.17
2017-11-29T01:38:38.182Z,12.47
2017-11-29T01:41:06.512Z,12.50
2017-11-29T01:43:34.058Z,11.27
2017-11-29T01:46:01.616Z,11.10
2017-11-29T01:48:29.160Z,12.13
2017-11-29T01:50:56.699Z,11.37
2017-11-29T01:53:25.028Z,11.20
2017-11-29T01:55:52.569Z,11.27
2017-11-29T01:58:20.148Z,11.80
2017-11-29T02:00:48.461Z,11.60
2017-11-29T02:03:16.787Z,11.60
2017-11-29T02:05:44.320Z,11.73
2017-11-29T02:08:11.887Z,11.97
2017-11-29T02:10:39.425Z,11.60
2017-11-29T02:13:07.762Z,10.30
2017-11-29T02:15:35.301Z,10.10
2017-11-29T02:18:02.863Z,10.17
2017-11-29T02:20:30.392Z,9.73
2017-11-29T02:22:57.951Z,11.70
2017-11-29T02:25:26.244Z,9.53
2017-11-29T02:27:53.801Z,10.03
2017-11-29T02:30:21.345Z,10.90
2017-11-29T02:32:48.946Z,11.23
2017-11-29T02:35:16.488Z,10.37
2017-11-29T02:37:44.053Z,10.77
2017-11-29T02:40:23.423Z,11.20
2017-11-29T02:42:50.981Z,11.57
2017-11-29T02:45:18.516Z,10.87
2017-11-29T02:47:46.083Z,10.17
2017-11-29T02:50:13.627Z,10.83
2017-11-29T02:52:41.175Z,9.90
2017-11-29T02:55:08.702Z,9.40
2017-11-29T02:57:37.031Z,8.67
2017-11-29T03:00:04.567Z,10.03
2017-11-29T03:02:32.124Z,9.53
2017-11-29T03:04:59.660Z,10.17
2017-11-29T03:07:27.216Z,9.90
2017-11-29T03:09:54.743Z,9.33
2017-11-29T03:12:22.310Z,9.73
2017-11-29T03:14:49.850Z,10.77
2017-11-29T03:17:17.408Z,9.60
2017-11-29T03:20:01.976Z,10.00
2017-11-29T03:22:29.528Z,8.70
2017-11-29T03:24:57.060Z,11.57
2017-11-29T03:27:24.619Z,9.07
2017-11-29T03:29:52.151Z,9.30
2017-11-29T03:32:19.717Z,10.40
2017-11-29T03:34:48.021Z,10.23
2017-11-29T03:37:15.579Z,9.93
2017-11-29T03:39:43.116Z,10.00
2017-11-29T03:42:11.439Z,10.00
2017-11-29T03:44:38.975Z,10.60
2017-11-29T03:47:06.540Z,10.77
2017-11-29T03:49:34.064Z,9.93
2017-11-29T03:52:01.633Z,10.63
2017-11-29T03:54:29.944Z,10.03
2017-11-29T03:56:57.515Z,10.83
2017-11-29T03:59:25.061Z,11.60
2017-11-29T04:01:52.620Z,10.30
2017-11-29T04:04:20.158Z,11.33
2017-11-29T04:06:48.487Z,11.30
2017-11-29T04:09:16.025Z,12.70
2017-11-29T04:11:43.610Z,11.07
2017-11-29T04:14:11.151Z,10.83
2017-11-29T04:16:38.676Z,11.07
2017-11-29T04:19:06.241Z,11.30
2017-11-29T04:21:33.781Z,10.10
2017-11-29T04:24:02.117Z,10.33
2017-11-29T04:26:29.648Z,9.60
2017-11-29T04:28:57.211Z,9.53
2017-11-29T04:31:24.742Z,9.27
2017-11-29T04:33:53.064Z,10.20
2017-11-29T04:36:20.597Z,9.77
2017-11-29T04:38:48.168Z,10.10
2017-11-29T04:41:15.705Z,10.80
2017-11-29T04:43:44.293Z,10.47
2017-11-29T04:46:11.842Z,8.70
2017-11-29T04:48:40.177Z,11.00
2017-11-29T04:51:07.713Z,10.83
2017-11-29T04:53:35.269Z,11.30
2017-11-29T04:56:02.804Z,11.47
2017-11-29T04:58:31.137Z,12.20
2017-11-29T05:00:58.680Z,12.07
2017-11-29T05:03:26.243Z,12.97
2017-11-29T05:05:53.775Z,14.40
2017-11-29T05:08:21.341Z,15.77
2017-11-29T05:10:55.300Z,16.17
2017-11-29T05:13:22.868Z,15.90
2017-11-29T05:15:50.404Z,13.37
2017-11-29T05:18:17.963Z,15.40
2017-11-29T05:20:45.500Z,15.30
2017-11-29T05:23:13.056Z,15.07
2017-11-29T05:25:40.606Z,14.37
2017-11-29T05:28:08.166Z,14.23
2017-11-29T05:30:35.709Z,14.10
2017-11-29T05:33:04.056Z,15.43
2017-11-29T05:35:31.596Z,16.00
2017-11-29T05:37:59.155Z,16.20
2017-11-29T05:40:26.703Z,13.70
2017-11-29T05:42:54.271Z,15.40
2017-11-29T05:45:21.804Z,14.80
2017-11-29T05:47:49.379Z,15.57
2017-11-29T05:50:16.937Z,15.30
2017-11-29T05:52:44.506Z,15.20
2017-11-29T05:55:12.056Z,16.47
2017-11-29T05:57:39.624Z,15.47
2017-11-29T06:00:07.167Z,14.63
2017-11-29T06:02:34.723Z,16.67
2017-11-29T06:05:02.256Z,15.43
2017-11-29T06:07:30.583Z,14.37
2017-11-29T06:09:58.116Z,14.13
2017-11-29T06:12:25.651Z,13.87
2017-11-29T06:14:54.005Z,13.47
2017-11-29T06:17:21.576Z,12.63
2017-11-29T06:19:49.153Z,10.57
2017-11-29T06:22:17.473Z,11.10
2017-11-29T06:24:45.039Z,11.60
2017-11-29T06:27:12.589Z,12.03
2017-11-29T06:29:40.171Z,12.03
2017-11-29T06:51:27.397Z,13.73
2017-11-29T06:53:54.964Z,14.43
2017-11-29T06:56:22.511Z,15.00
2017-11-29T06:58:50.078Z,14.47
2017-11-29T07:01:17.616Z,13.33
2017-11-29T07:03:45.179Z,13.53
2017-11-29T07:06:13.472Z,13.20
2017-11-29T07:08:41.050Z,12.70
2017-11-29T07:11:08.626Z,11.50
2017-11-29T07:13:36.212Z,11.97
2017-11-29T07:16:03.747Z,11.10
2017-11-29T07:18:31.308Z,11.43
2017-11-29T07:20:58.892Z,10.47
2017-11-29T07:23:26.431Z,12.83
2017-11-29T07:25:54.003Z,11.00
2017-11-29T07:28:21.564Z,11.03
2017-11-29T07:30:49.163Z,11.53
2017-11-29T07:33:16.714Z,9.80
2017-11-29T07:35:44.291Z,10.67
2017-11-29T07:38:11.826Z,10.93
2017-11-29T07:40:40.173Z,10.80
2017-11-29T07:43:07.719Z,10.10
2017-11-29T07:45:35.290Z,10.33
2017-11-29T07:48:02.862Z,10.70
2017-11-29T07:50:30.434Z,10.87
2017-11-29T07:52:58.749Z,11.83
2017-11-29T07:55:26.321Z,11.40
2017-11-29T07:57:53.869Z,12.10
2017-11-29T08:00:21.444Z,12.90
2017-11-29T08:02:48.990Z,13.73
2017-11-29T08:05:16.545Z,11.77
2017-11-29T08:07:44.089Z,13.37
2017-11-29T08:10:12.411Z,12.63
2017-11-29T08:12:39.947Z,12.57
2017-11-29T08:15:07.505Z,13.67
2017-11-29T08:17:35.087Z,11.23
2017-11-29T08:20:02.636Z,12.50
2017-11-29T08:22:30.220Z,12.90
2017-11-29T08:24:57.783Z,12.50
2017-11-29T08:27:25.364Z,12.13
2017-11-29T08:29:52.886Z,13.93
2017-11-29T08:32:20.452Z,13.10
2017-11-29T08:34:47.993Z,13.40
2017-11-29T08:37:15.548Z,14.93
2017-11-29T08:39:43.087Z,14.90
2017-11-29T08:42:10.640Z,14.33
2017-11-29T08:44:38.949Z,13.87
2017-11-29T08:47:06.510Z,11.20
2017-11-29T08:49:34.072Z,12.30
2017-11-29T08:52:01.616Z,10.10
2017-11-29T08:54:29.167Z,9.57
2017-11-29T08:56:56.729Z,12.33
2017-11-29T08:59:24.259Z,9.57
2017-11-29T09:01:52.595Z,9.60
2017-11-29T09:04:20.127Z,10.23
2017-11-29T09:06:47.685Z,9.73
2017-11-29T09:09:15.228Z,11.03
2017-11-29T09:11:43.550Z,11.40
2017-11-29T09:14:11.090Z,10.93
2017-11-29T09:16:38.627Z,10.80
2017-11-29T09:19:06.956Z,9.50
2017-11-29T09:21:34.500Z,7.67
2017-11-29T09:24:02.060Z,9.17
2017-11-29T09:26:29.585Z,7.50
2017-11-29T09:28:57.907Z,9.70
2017-11-29T09:31:25.439Z,9.50
2017-11-29T09:33:53.012Z,9.30
2017-11-29T09:36:20.566Z,9.00
2017-11-29T09:38:48.137Z,8.60
2017-11-29T09:41:15.685Z,9.13
2017-11-29T09:43:43.252Z,9.40
2017-11-29T09:46:10.788Z,8.80
2017-11-29T09:48:38.353Z,9.47
2017-11-29T09:51:05.879Z,10.20
2017-11-29T09:53:33.434Z,9.80
2017-11-29T09:56:00.964Z,9.33
2017-11-29T09:58:28.528Z,9.73
2017-11-29T10:00:56.067Z,8.90
2017-11-29T10:03:23.617Z,10.37
2017-11-29T10:05:51.150Z,8.97
2017-11-29T10:08:19.473Z,9.80
2017-11-29T10:10:47.000Z,8.83
2017-11-29T10:13:14.568Z,8.13
2017-11-29T10:15:42.100Z,8.30
2017-11-29T10:18:10.426Z,8.63
2017-11-29T10:20:37.987Z,8.43
2017-11-29T10:23:05.524Z,9.17
2017-11-29T10:25:33.090Z,8.20
2017-11-29T10:28:00.623Z,10.13
2017-11-29T10:30:28.964Z,10.07
2017-11-29T10:32:56.502Z,8.37
2017-11-29T10:35:24.060Z,7.40
2017-11-29T10:37:51.584Z,8.10
2017-11-29T10:40:19.144Z,8.00
2017-11-29T10:42:46.692Z,7.93
2017-11-29T10:45:15.009Z,9.60
2017-11-29T10:47:42.535Z,8.10
2017-11-29T10:50:10.860Z,8.53
2017-11-29T10:52:38.672Z,8.70
2017-11-29T10:55:06.991Z,8.43
2017-11-29T10:57:34.539Z,7.40
2017-11-29T11:00:02.100Z,8.53
2017-11-29T11:02:29.647Z,8.83
2017-11-29T11:04:57.200Z,8.70
2017-11-29T11:07:25.499Z,9.50
2017-11-29T11:09:53.067Z,8.33
2017-11-29T11:12:20.603Z,8.97
2017-11-29T11:14:48.196Z,9.93
2017-11-29T11:17:15.732Z,8.43
2017-11-29T11:19:43.284Z,7.60
2017-11-29T11:22:11.579Z,8.27
2017-11-29T11:24:39.154Z,9.00
2017-11-29T11:27:06.694Z,7.33
2017-11-29T11:29:34.252Z,7.93
2017-11-29T11:32:01.777Z,8.23
2017-11-29T11:34:30.096Z,9.43
2017-11-29T11:36:57.636Z,7.17
2017-11-29T11:39:25.204Z,7.03
2017-11-29T11:41:52.740Z,6.63
2017-11-29T11:44:21.074Z,7.50
2017-11-29T11:46:48.603Z,8.20
2017-11-29T11:49:16.160Z,8.60
2017-11-29T11:51:43.696Z,7.50
2017-11-29T11:54:12.028Z,8.13
2017-11-29T11:56:39.574Z,7.00
2017-11-29T11:59:07.132Z,6.63
2017-11-29T12:01:34.664Z,6.03
2017-11-29T12:04:02.244Z,7.80
2017-11-29T12:06:29.777Z,7.53
2017-11-29T12:08:58.105Z,7.63
2017-11-29T12:11:25.635Z,6.50
2017-11-29T12:13:53.187Z,6.00
2017-11-29T12:16:20.724Z,7.10
2017-11-29T12:18:49.066Z,7.70
2017-11-29T12:21:16.589Z,6.60
2017-11-29T12:23:44.138Z,7.20
2017-11-29T12:26:11.717Z,7.70
2017-11-29T12:28:39.248Z,8.10
2017-11-29T12:31:07.565Z,7.53
2017-11-29T12:33:35.100Z,6.93
2017-11-29T12:36:02.669Z,7.77
2017-11-29T12:38:30.209Z,7.57
2017-11-29T12:40:58.535Z,6.80
2017-11-29T12:43:26.082Z,7.57
2017-11-29T12:45:53.638Z,5.80
2017-11-29T12:48:32.915Z,6.17
2017-11-29T12:51:08.162Z,6.30
2017-11-29T12:53:36.472Z,7.10
2017-11-29T12:56:04.049Z,6.97
2017-11-29T12:58:31.588Z,7.73
2017-11-29T13:00:59.154Z,6.83
2017-11-29T13:03:26.719Z,7.90
2017-11-29T13:05:54.289Z,7.70
2017-11-29T13:08:21.856Z,9.27
2017-11-29T13:10:49.437Z,12.57
2017-11-29T13:13:16.994Z,17.73
2017-11-29T13:15:44.566Z,8.20
2017-11-29T13:18:12.108Z,7.90
2017-11-29T13:20:39.687Z,7.10
2017-11-29T13:23:07.238Z,6.90
2017-11-29T13:25:35.572Z,7.40
2017-11-29T13:28:03.109Z,7.00
2017-11-29T13:30:31.447Z,6.60
2017-11-29T13:32:58.988Z,8.03
2017-11-29T13:35:26.556Z,9.87
2017-11-29T13:37:54.109Z,9.97
2017-11-29T13:40:21.689Z,8.10
2017-11-29T13:42:49.228Z,6.90
2017-11-29T13:45:16.787Z,6.60
2017-11-29T13:47:44.335Z,6.00
2017-11-29T13:50:11.899Z,5.37
2017-11-29T13:52:39.446Z,7.33
2017-11-29T13:55:07.017Z,6.37
2017-11-29T13:57:34.548Z,7.60
2017-11-29T14:00:02.881Z,6.07
2017-11-29T14:02:30.419Z,6.00
2017-11-29T14:04:57.999Z,4.93
2017-11-29T14:07:25.534Z,5.70
2017-11-29T14:09:53.113Z,5.70
2017-11-29T14:12:20.655Z,5.67
2017-11-29T14:14:48.217Z,5.60
2017-11-29T14:17:15.766Z,5.73
2017-11-29T14:19:43.343Z,5.77
2017-11-29T14:22:10.903Z,5.83
2017-11-29T14:24:38.457Z,5.60
2017-11-29T14:27:06.768Z,5.37
2017-11-29T14:29:34.363Z,6.30
2017-11-29T14:32:02.685Z,5.30
2017-11-29T14:34:30.279Z,7.13
2017-11-29T14:36:57.855Z,8.03
2017-11-29T14:39:26.175Z,6.70
2017-11-29T14:41:53.773Z,6.37
2017-11-29T14:44:21.333Z,6.23
2017-11-29T14:46:48.884Z,6.43
2017-11-29T14:49:16.464Z,8.27
2017-11-29T14:51:44.031Z,6.80
2017-11-29T14:54:12.373Z,6.77
2017-11-29T14:56:39.937Z,6.83
2017-11-29T14:59:07.489Z,8.20
2017-11-29T15:01:35.068Z,8.13
2017-11-29T15:04:02.632Z,8.60
2017-11-29T15:06:30.227Z,10.17
2017-11-29T15:08:57.782Z,8.63
2017-11-29T15:11:25.390Z,8.60
2017-11-29T15:13:52.943Z,8.00
2017-11-29T15:16:20.519Z,8.87
2017-11-29T15:18:48.110Z,8.87
2017-11-29T15:21:15.688Z,8.13
2017-11-29T15:23:44.056Z,9.40
2017-11-29T15:26:12.403Z,8.63
2017-11-29T15:28:39.995Z,8.30
2017-11-29T15:31:08.298Z,8.60
2017-11-29T15:33:35.876Z,9.10
2017-11-29T15:36:03.423Z,10.60
2017-11-29T15:38:30.982Z,9.63
2017-11-29T15:40:58.534Z,10.57
2017-11-29T15:43:26.104Z,10.30
2017-11-29T15:45:53.655Z,10.33
2017-11-29T15:48:21.223Z,9.33
2017-11-29T15:50:48.792Z,8.53
2017-11-29T15:53:16.364Z,9.70
2017-11-29T15:55:43.906Z,9.97
2017-11-29T15:58:11.495Z,9.63
2017-11-29T16:00:39.033Z,9.60
2017-11-29T16:03:06.592Z,9.50
2017-11-29T16:05:34.118Z,9.97
2017-11-29T16:08:02.448Z,11.10
2017-11-29T16:10:29.985Z,10.47
2017-11-29T16:12:57.540Z,12.37
2017-11-29T16:15:25.071Z,11.23
2017-11-29T16:17:53.411Z,12.23
2017-11-29T16:20:20.945Z,10.90
2017-11-29T16:22:48.481Z,10.87
2017-11-29T16:25:16.040Z,10.70
2017-11-29T16:27:43.572Z,10.53
2017-11-29T16:30:11.133Z,12.00
2017-11-29T16:32:39.433Z,13.17
2017-11-29T16:35:06.996Z,14.20
2017-11-29T16:37:34.530Z,11.70
2017-11-29T16:40:02.092Z,13.10
2017-11-29T16:42:30.384Z,12.60
2017-11-29T16:44:58.704Z,13.80
2017-11-29T16:47:27.484Z,13.03
2017-11-29T16:49:55.675Z,11.33
2017-11-29T16:52:23.743Z,11.50
2017-11-29T16:54:51.326Z,11.23
2017-11-29T16:57:18.855Z,10.40
2017-11-29T16:59:46.404Z,11.27
2017-11-29T17:02:13.948Z,12.23
2017-11-29T17:04:41.510Z,12.27
2017-11-29T17:07:09.038Z,12.70
2017-11-29T17:09:36.594Z,11.80
2017-11-29T17:12:04.119Z,13.30
2017-11-29T17:14:31.685Z,11.40
2017-11-29T17:16:59.226Z,12.33
2017-11-29T17:19:26.804Z,12.07
2017-11-29T17:21:55.112Z,17.33
2017-11-29T17:24:22.641Z,13.83
2017-11-29T17:26:50.208Z,12.50
2017-11-29T17:29:17.743Z,10.93
2017-11-29T17:31:45.303Z,10.50
2017-11-29T17:34:12.837Z,9.93
2017-11-29T17:36:40.409Z,9.60
2017-11-29T17:39:07.945Z,9.37
2017-11-29T17:41:35.512Z,10.27
2017-11-29T17:44:03.804Z,10.73
2017-11-29T17:46:31.355Z,9.30
2017-11-29T17:48:58.885Z,11.70
2017-11-29T17:51:26.454Z,10.73
2017-11-29T17:53:54.752Z,10.03
2017-11-29T17:56:22.312Z,11.53
2017-11-29T17:58:49.844Z,10.67
2017-11-29T18:01:18.166Z,10.57
2017-11-29T18:03:45.696Z,11.07
2017-11-29T18:06:14.023Z,11.00
2017-11-29T18:08:41.552Z,11.10
2017-11-29T18:11:09.109Z,11.90
2017-11-29T18:13:36.649Z,10.60
2017-11-29T18:16:04.972Z,11.70
2017-11-29T18:18:32.504Z,12.80
2017-11-29T18:21:00.064Z,12.67
2017-11-29T18:23:27.610Z,12.70
2017-11-29T18:25:55.180Z,12.87
2017-11-29T18:28:22.712Z,12.10
2017-11-29T18:30:50.276Z,12.80
2017-11-29T18:33:18.572Z,12.87
2017-11-29T18:35:46.891Z,13.10
2017-11-29T18:38:14.419Z,13.13
2017-11-29T18:40:41.972Z,11.97
2017-11-29T18:43:09.513Z,14.80
2017-11-29T18:45:37.838Z,12.70
2017-11-29T18:48:05.369Z,13.10
2017-11-29T18:50:33.030Z,13.83
2017-11-29T18:53:00.632Z,14.03
2017-11-29T18:55:28.310Z,13.30
2017-11-29T18:57:56.740Z,12.80
2017-11-29T19:00:24.331Z,14.90
2017-11-29T19:02:51.944Z,14.23
2017-11-29T19:05:19.554Z,14.77
2017-11-29T19:07:47.199Z,15.00
2017-11-29T19:10:14.800Z,13.70
2017-11-29T19:12:42.390Z,15.60
2017-11-29T19:15:10.724Z,15.60
2017-11-29T19:17:38.327Z,14.77
2017-11-29T19:20:06.694Z,14.73
2017-11-29T19:22:35.043Z,14.63
2017-11-29T19:25:02.629Z,14.83
2017-11-29T19:27:30.986Z,14.07
2017-11-29T19:29:58.612Z,16.10
2017-11-29T19:32:26.231Z,16.80
2017-11-29T19:34:54.641Z,16.93
2017-11-29T19:37:22.300Z,18.70
2017-11-29T19:39:49.912Z,18.57
2017-11-29T19:42:17.591Z,16.67
2017-11-29T19:44:45.183Z,19.03
2017-11-29T19:47:12.827Z,15.40
2017-11-29T19:49:41.173Z,14.70
2017-11-29T19:52:08.807Z,17.20
2017-11-29T19:54:36.446Z,15.23
2017-11-29T19:57:04.087Z,16.30
2017-11-29T19:59:32.489Z,16.33
2017-11-29T20:02:00.078Z,15.00
2017-11-29T20:04:27.717Z,16.30
2017-11-29T20:06:55.317Z,16.60
2017-11-29T20:09:22.905Z,16.03
2017-11-29T20:11:51.293Z,13.97
2017-11-29T20:14:19.638Z,16.37
2017-11-29T20:16:47.264Z,16.93
2017-11-29T20:19:14.885Z,15.30
2017-11-29T20:21:43.289Z,15.50
2017-11-29T20:24:10.869Z,14.67
2017-11-29T20:26:38.468Z,14.30
2017-11-29T20:29:06.079Z,15.40
2017-11-29T20:31:33.658Z,15.73
2017-11-29T20:34:01.255Z,16.20
2017-11-29T20:36:29.631Z,15.73
2017-11-29T20:38:57.272Z,15.43
2017-11-29T20:41:24.835Z,15.40
2017-11-29T20:43:52.418Z,15.70
2017-11-29T20:46:19.971Z,18.50
2017-11-29T20:48:47.544Z,16.00
2017-11-29T20:51:15.086Z,15.83
2017-11-29T20:53:42.657Z,16.73
2017-11-29T20:56:10.225Z,15.20
2017-11-29T20:58:37.804Z,15.53
2017-11-29T21:01:05.356Z,17.17
2017-11-29T21:03:33.700Z,16.13
2017-11-29T21:06:01.265Z,14.77
2017-11-29T21:08:28.851Z,17.17
2017-11-29T21:10:57.210Z,15.50
2017-11-29T21:13:24.819Z,14.10
2017-11-29T21:15:52.400Z,15.70
2017-11-29T21:18:19.987Z,15.80
2017-11-29T21:20:47.537Z,18.43
2017-11-29T21:23:15.107Z,17.73
2017-11-29T21:25:42.642Z,15.07
2017-11-29T21:28:10.216Z,15.33
2017-11-29T21:30:37.765Z,16.10
2017-11-29T21:33:05.401Z,15.43
2017-11-29T21:35:32.961Z,15.77
2017-11-29T21:38:00.554Z,16.23
2017-11-29T21:40:28.091Z,15.10
2017-11-29T21:42:55.657Z,16.00
2017-11-29T21:45:23.974Z,16.37
2017-11-29T21:47:51.603Z,15.30
2017-11-29T21:50:19.164Z,16.60
2017-11-29T21:52:46.755Z,14.10
2017-11-29T21:55:14.354Z,15.83
2017-11-29T21:57:44.152Z,16.77
2017-11-29T22:00:12.574Z,13.43
2017-11-29T22:02:40.199Z,14.67
2017-11-29T22:05:07.746Z,16.10
2017-11-29T22:07:36.102Z,16.27
2017-11-29T22:10:03.680Z,15.70
2017-11-29T22:12:31.240Z,17.10
2017-11-29T22:14:58.834Z,13.63
2017-11-29T22:17:26.531Z,14.73
2017-11-29T22:19:54.129Z,13.97
2017-11-29T22:25:16.539Z,14.07
2017-11-29T22:27:44.102Z,14.70
2017-11-29T22:30:11.637Z,13.77
2017-11-29T22:32:39.335Z,12.87
2017-11-29T22:35:06.864Z,13.30
2017-11-29T22:37:34.458Z,13.67
2017-11-29T22:40:02.084Z,12.83
2017-11-29T22:42:29.610Z,13.47
2017-11-29T22:44:57.175Z,13.70
2017-11-29T22:47:25.484Z,14.03
2017-11-29T22:49:53.199Z,12.23
2017-11-29T22:52:20.742Z,14.27
2017-11-29T22:54:48.308Z,14.30
2017-11-29T22:57:15.858Z,12.40
2017-11-29T22:59:43.425Z,13.40
2017-11-29T23:02:10.968Z,11.90
2017-11-29T23:04:38.523Z,12.37
2017-11-29T23:07:06.057Z,10.70
2017-11-29T23:09:33.620Z,10.53
2017-11-29T23:12:01.157Z,11.13
2017-11-29T23:14:29.482Z,11.97
2017-11-29T23:16:57.016Z,10.00
2017-11-29T23:19:24.579Z,10.20
2017-11-29T23:21:52.126Z,9.73
2017-11-29T23:24:20.447Z,12.53
2017-11-29T23:26:47.977Z,10.43
2017-11-29T23:29:15.528Z,9.63
2017-11-29T23:31:43.068Z,10.77
2017-11-29T23:34:11.419Z,11.70
2017-11-29T23:36:38.979Z,11.40
2017-11-29T23:39:06.557Z,10.90
2017-11-29T23:41:34.877Z,10.10
2017-11-29T23:44:02.426Z,9.93
2017-11-29T23:46:29.961Z,9.80
2017-11-29T23:48:58.286Z,10.00
2017-11-29T23:51:25.819Z,10.10
2017-11-29T23:53:53.376Z,11.00
2017-11-29T23:56:20.912Z,10.90
2017-11-29T23:58:48.469Z,10.80
